sensor_id;sensor_type;location;lat;lon;timestamp;temperature;humidity
41722;DHT22;27407;24.142;-110.310;2023-02-22T00:00:41;24.20;85.50
41722;DHT22;27407;24.142;-110.310;2023-02-22T00:03:25;24.40;85.80
41722;DHT22;27407;24.142;-110.310;2023-02-22T00:05:55;24.40;86.00
41722;DHT22;27407;24.142;-110.310;2023-02-22T00:08:26;24.40;88.00
41722;DHT22;27407;24.142;-110.310;2023-02-22T00:10:59;24.50;88.40
41722;DHT22;27407;24.142;-110.310;2023-02-22T00:13:27;24.50;90.20
41722;DHT22;27407;24.142;-110.310;2023-02-22T00:15:57;24.30;91.00
41722;DHT22;27407;24.142;-110.310;2023-02-22T00:18:25;24.20;92.20
41722;DHT22;27407;24.142;-110.310;2023-02-22T00:20:57;24.20;94.00
41722;DHT22;27407;24.142;-110.310;2023-02-22T00:23:29;23.90;95.50
41722;DHT22;27407;24.142;-110.310;2023-02-22T00:25:58;23.60;96.70
41722;DHT22;27407;24.142;-110.310;2023-02-22T00:28:25;23.50;98.20
41722;DHT22;27407;24.142;-110.310;2023-02-22T00:35:46;22.80;99.90
41722;DHT22;27407;24.142;-110.310;2023-02-22T00:38:15;22.60;99.90
41722;DHT22;27407;24.142;-110.310;2023-02-22T00:40:43;22.60;99.90
41722;DHT22;27407;24.142;-110.310;2023-02-22T00:43:10;22.30;99.90
41722;DHT22;27407;24.142;-110.310;2023-02-22T00:45:37;22.20;99.90
41722;DHT22;27407;24.142;-110.310;2023-02-22T00:48:05;22.20;99.90
41722;DHT22;27407;24.142;-110.310;2023-02-22T00:50:32;21.10;99.90
41722;DHT22;27407;24.142;-110.310;2023-02-22T00:53:00;20.50;99.90
41722;DHT22;27407;24.142;-110.310;2023-02-22T00:55:30;22.20;99.90
41722;DHT22;27407;24.142;-110.310;2023-02-22T00:57:58;22.10;99.90
41722;DHT22;27407;24.142;-110.310;2023-02-22T01:00:29;22.10;99.90
41722;DHT22;27407;24.142;-110.310;2023-02-22T01:05:25;21.70;99.90
41722;DHT22;27407;24.142;-110.310;2023-02-22T01:07:53;21.70;99.90
41722;DHT22;27407;24.142;-110.310;2023-02-22T01:10:25;21.50;99.90
41722;DHT22;27407;24.142;-110.310;2023-02-22T01:12:53;21.60;99.90
41722;DHT22;27407;24.142;-110.310;2023-02-22T01:15:22;21.10;99.90
41722;DHT22;27407;24.142;-110.310;2023-02-22T01:17:50;20.80;99.90
41722;DHT22;27407;24.142;-110.310;2023-02-22T01:20:20;20.90;99.90
41722;DHT22;27407;24.142;-110.310;2023-02-22T01:22:49;20.70;99.90
41722;DHT22;27407;24.142;-110.310;2023-02-22T01:25:21;20.60;99.90
41722;DHT22;27407;24.142;-110.310;2023-02-22T01:27:49;20.60;99.90
41722;DHT22;27407;24.142;-110.310;2023-02-22T01:30:21;20.70;99.90
41722;DHT22;27407;24.142;-110.310;2023-02-22T01:35:20;20.60;99.90
41722;DHT22;27407;24.142;-110.310;2023-02-22T01:37:47;20.40;99.90
41722;DHT22;27407;24.142;-110.310;2023-02-22T01:40:25;19.40;99.90
41722;DHT22;27407;24.142;-110.310;2023-02-22T01:42:53;20.20;99.90
41722;DHT22;27407;24.142;-110.310;2023-02-22T01:48:08;20.20;99.90
41722;DHT22;27407;24.142;-110.310;2023-02-22T01:50:44;20.70;99.90
41722;DHT22;27407;24.142;-110.310;2023-02-22T01:53:15;20.10;99.90
41722;DHT22;27407;24.142;-110.310;2023-02-22T01:55:44;20.10;99.90
41722;DHT22;27407;24.142;-110.310;2023-02-22T01:58:12;20.80;99.90
41722;DHT22;27407;24.142;-110.310;2023-02-22T02:00:41;19.20;99.90
41722;DHT22;27407;24.142;-110.310;2023-02-22T02:03:22;19.70;99.90
41722;DHT22;27407;24.142;-110.310;2023-02-22T02:05:54;18.30;99.90
41722;DHT22;27407;24.142;-110.310;2023-02-22T02:10:57;19.70;99.90
41722;DHT22;27407;24.142;-110.310;2023-02-22T02:13:26;19.50;99.90
41722;DHT22;27407;24.142;-110.310;2023-02-22T02:15:56;19.70;99.90
41722;DHT22;27407;24.142;-110.310;2023-02-22T02:18:24;19.60;99.90
41722;DHT22;27407;24.142;-110.310;2023-02-22T02:26:32;19.50;99.90
41722;DHT22;27407;24.142;-110.310;2023-02-22T02:37:50;19.20;99.90
41722;DHT22;27407;24.142;-110.310;2023-02-22T02:40:35;19.10;99.90
41722;DHT22;27407;24.142;-110.310;2023-02-22T02:45:46;19.00;99.90
41722;DHT22;27407;24.142;-110.310;2023-02-22T02:48:15;19.00;99.90
41722;DHT22;27407;24.142;-110.310;2023-02-22T02:50:47;19.00;99.90
41722;DHT22;27407;24.142;-110.310;2023-02-22T02:53:20;19.00;99.90
41722;DHT22;27407;24.142;-110.310;2023-02-22T02:55:47;18.80;99.90
41722;DHT22;27407;24.142;-110.310;2023-02-22T02:58:20;19.00;99.90
41722;DHT22;27407;24.142;-110.310;2023-02-22T03:00:49;18.80;99.90
41722;DHT22;27407;24.142;-110.310;2023-02-22T03:11:10;18.60;99.90
41722;DHT22;27407;24.142;-110.310;2023-02-22T03:17:19;18.50;99.90
41722;DHT22;27407;24.142;-110.310;2023-02-22T03:27:36;18.70;99.90
41722;DHT22;27407;24.142;-110.310;2023-02-22T03:32:55;18.40;99.90
41722;DHT22;27407;24.142;-110.310;2023-02-22T03:35:38;18.30;99.90
41722;DHT22;27407;24.142;-110.310;2023-02-22T03:38:10;17.20;99.90
41722;DHT22;27407;24.142;-110.310;2023-02-22T03:40:43;18.50;99.90
41722;DHT22;27407;24.142;-110.310;2023-02-22T03:43:14;18.00;99.90
41722;DHT22;27407;24.142;-110.310;2023-02-22T03:45:44;17.60;99.90
41722;DHT22;27407;24.142;-110.310;2023-02-22T03:48:50;18.80;99.90
41722;DHT22;27407;24.142;-110.310;2023-02-22T03:51:19;18.10;99.90
41722;DHT22;27407;24.142;-110.310;2023-02-22T03:56:32;18.10;99.90
41722;DHT22;27407;24.142;-110.310;2023-02-22T03:59:05;18.00;99.90
41722;DHT22;27407;24.142;-110.310;2023-02-22T04:01:33;18.00;99.90
41722;DHT22;27407;24.142;-110.310;2023-02-22T04:04:01;17.70;99.90
41722;DHT22;27407;24.142;-110.310;2023-02-22T04:06:28;18.00;99.90
41722;DHT22;27407;24.142;-110.310;2023-02-22T04:08:55;18.10;99.90
41722;DHT22;27407;24.142;-110.310;2023-02-22T04:11:22;18.00;99.90
41722;DHT22;27407;24.142;-110.310;2023-02-22T04:16:15;17.90;99.90
41722;DHT22;27407;24.142;-110.310;2023-02-22T04:21:08;17.80;99.90
41722;DHT22;27407;24.142;-110.310;2023-02-22T04:35:48;17.50;99.90
41722;DHT22;27407;24.142;-110.310;2023-02-22T04:40:43;17.20;99.90
41722;DHT22;27407;24.142;-110.310;2023-02-22T04:43:09;17.80;99.90
41722;DHT22;27407;24.142;-110.310;2023-02-22T04:48:03;17.80;99.90
41722;DHT22;27407;24.142;-110.310;2023-02-22T04:55:23;17.60;99.90
41722;DHT22;27407;24.142;-110.310;2023-02-22T05:00:17;17.50;99.90
41722;DHT22;27407;24.142;-110.310;2023-02-22T05:02:47;17.40;99.90
41722;DHT22;27407;24.142;-110.310;2023-02-22T05:05:16;16.30;99.90
41722;DHT22;27407;24.142;-110.310;2023-02-22T05:10:10;17.30;99.90
41722;DHT22;27407;24.142;-110.310;2023-02-22T05:12:37;16.90;99.90
41722;DHT22;27407;24.142;-110.310;2023-02-22T05:15:05;16.90;99.90
41722;DHT22;27407;24.142;-110.310;2023-02-22T05:17:33;16.70;99.90
41722;DHT22;27407;24.142;-110.310;2023-02-22T05:20:00;16.60;99.90
41722;DHT22;27407;24.142;-110.310;2023-02-22T05:22:28;16.30;99.90
41722;DHT22;27407;24.142;-110.310;2023-02-22T05:27:22;16.50;99.90
41722;DHT22;27407;24.142;-110.310;2023-02-22T06:13:50;15.70;99.90
41722;DHT22;27407;24.142;-110.310;2023-02-22T06:16:18;15.70;99.90
41722;DHT22;27407;24.142;-110.310;2023-02-22T06:18:46;15.70;99.90
41722;DHT22;27407;24.142;-110.310;2023-02-22T06:38:21;15.50;99.90
41722;DHT22;27407;24.142;-110.310;2023-02-22T06:55:31;15.80;99.90
41722;DHT22;27407;24.142;-110.310;2023-02-22T06:57:58;15.10;99.90
41722;DHT22;27407;24.142;-110.310;2023-02-22T07:00:27;15.20;99.90
41722;DHT22;27407;24.142;-110.310;2023-02-22T07:02:56;15.40;99.90
41722;DHT22;27407;24.142;-110.310;2023-02-22T07:05:24;15.40;99.90
41722;DHT22;27407;24.142;-110.310;2023-02-22T07:07:54;15.90;99.90
41722;DHT22;27407;24.142;-110.310;2023-02-22T07:12:48;14.90;99.90
41722;DHT22;27407;24.142;-110.310;2023-02-22T07:15:16;15.90;99.90
41722;DHT22;27407;24.142;-110.310;2023-02-22T07:17:43;15.10;99.90
41722;DHT22;27407;24.142;-110.310;2023-02-22T07:20:10;15.10;99.90
41722;DHT22;27407;24.142;-110.310;2023-02-22T07:22:38;15.60;99.90
41722;DHT22;27407;24.142;-110.310;2023-02-22T07:25:06;14.70;99.90
41722;DHT22;27407;24.142;-110.310;2023-02-22T07:27:38;15.10;99.90
41722;DHT22;27407;24.142;-110.310;2023-02-22T07:30:14;15.10;99.90
41722;DHT22;27407;24.142;-110.310;2023-02-22T07:32:44;13.90;99.90
41722;DHT22;27407;24.142;-110.310;2023-02-22T07:35:35;15.70;99.90
41722;DHT22;27407;24.142;-110.310;2023-02-22T07:38:03;15.40;99.90
41722;DHT22;27407;24.142;-110.310;2023-02-22T07:43:03;15.40;99.90
41722;DHT22;27407;24.142;-110.310;2023-02-22T07:45:32;15.10;99.90
41722;DHT22;27407;24.142;-110.310;2023-02-22T07:48:00;15.20;99.90
41722;DHT22;27407;24.142;-110.310;2023-02-22T07:50:29;15.30;99.90
41722;DHT22;27407;24.142;-110.310;2023-02-22T07:53:00;15.30;99.90
41722;DHT22;27407;24.142;-110.310;2023-02-22T07:55:28;15.10;99.90
41722;DHT22;27407;24.142;-110.310;2023-02-22T07:58:00;14.60;99.90
41722;DHT22;27407;24.142;-110.310;2023-02-22T08:00:32;14.90;99.90
41722;DHT22;27407;24.142;-110.310;2023-02-22T08:03:01;15.60;99.90
41722;DHT22;27407;24.142;-110.310;2023-02-22T08:05:29;15.50;99.90
41722;DHT22;27407;24.142;-110.310;2023-02-22T08:07:56;14.90;99.90
41722;DHT22;27407;24.142;-110.310;2023-02-22T08:10:24;14.80;99.90
41722;DHT22;27407;24.142;-110.310;2023-02-22T08:12:52;14.80;99.90
41722;DHT22;27407;24.142;-110.310;2023-02-22T08:17:48;14.80;99.90
41722;DHT22;27407;24.142;-110.310;2023-02-22T08:20:15;14.90;99.90
41722;DHT22;27407;24.142;-110.310;2023-02-22T08:22:43;15.30;99.90
41722;DHT22;27407;24.142;-110.310;2023-02-22T08:25:11;14.90;99.90
41722;DHT22;27407;24.142;-110.310;2023-02-22T08:27:38;15.20;99.90
41722;DHT22;27407;24.142;-110.310;2023-02-22T08:30:05;15.30;99.90
41722;DHT22;27407;24.142;-110.310;2023-02-22T08:32:33;15.30;99.90
41722;DHT22;27407;24.142;-110.310;2023-02-22T08:35:02;15.30;99.90
41722;DHT22;27407;24.142;-110.310;2023-02-22T09:09:18;14.30;99.90
41722;DHT22;27407;24.142;-110.310;2023-02-22T09:11:47;14.20;99.90
41722;DHT22;27407;24.142;-110.310;2023-02-22T09:14:14;14.20;99.90
41722;DHT22;27407;24.142;-110.310;2023-02-22T09:16:43;14.20;99.90
41722;DHT22;27407;24.142;-110.310;2023-02-22T09:24:06;15.50;99.90
41722;DHT22;27407;24.142;-110.310;2023-02-22T09:26:38;13.90;99.90
41722;DHT22;27407;24.142;-110.310;2023-02-22T09:29:06;14.80;99.90
41722;DHT22;27407;24.142;-110.310;2023-02-22T09:31:36;13.90;99.90
41722;DHT22;27407;24.142;-110.310;2023-02-22T09:34:05;14.20;99.90
41722;DHT22;27407;24.142;-110.310;2023-02-22T09:36:45;13.50;99.90
41722;DHT22;27407;24.142;-110.310;2023-02-22T09:39:13;14.00;99.90
41722;DHT22;27407;24.142;-110.310;2023-02-22T09:47:42;13.90;99.90
41722;DHT22;27407;24.142;-110.310;2023-02-22T09:50:16;14.70;99.90
41722;DHT22;27407;24.142;-110.310;2023-02-22T09:53:06;13.90;99.90
41722;DHT22;27407;24.142;-110.310;2023-02-22T09:55:43;13.80;99.90
41722;DHT22;27407;24.142;-110.310;2023-02-22T10:00:44;14.40;99.90
41722;DHT22;27407;24.142;-110.310;2023-02-22T10:06:19;13.70;99.90
41722;DHT22;27407;24.142;-110.310;2023-02-22T10:08:46;13.60;99.90
41722;DHT22;27407;24.142;-110.310;2023-02-22T10:11:22;13.70;99.90
41722;DHT22;27407;24.142;-110.310;2023-02-22T10:14:18;13.60;99.90
41722;DHT22;27407;24.142;-110.310;2023-02-22T10:25:11;13.60;99.90
41722;DHT22;27407;24.142;-110.310;2023-02-22T10:27:43;13.40;99.90
41722;DHT22;27407;24.142;-110.310;2023-02-22T10:33:33;13.60;99.90
41722;DHT22;27407;24.142;-110.310;2023-02-22T10:35:36;13.50;99.90
41722;DHT22;27407;24.142;-110.310;2023-02-22T10:38:27;13.60;99.90
41722;DHT22;27407;24.142;-110.310;2023-02-22T10:43:21;13.60;99.90
41722;DHT22;27407;24.142;-110.310;2023-02-22T10:45:57;13.60;99.90
41722;DHT22;27407;24.142;-110.310;2023-02-22T10:48:28;13.80;99.90
41722;DHT22;27407;24.142;-110.310;2023-02-22T10:51:01;13.80;99.90
41722;DHT22;27407;24.142;-110.310;2023-02-22T10:53:29;13.50;99.90
41722;DHT22;27407;24.142;-110.310;2023-02-22T10:56:19;13.50;99.90
41722;DHT22;27407;24.142;-110.310;2023-02-22T10:58:51;14.20;99.90
41722;DHT22;27407;24.142;-110.310;2023-02-22T11:04:19;14.00;99.90
41722;DHT22;27407;24.142;-110.310;2023-02-22T11:07:25;13.30;99.90
41722;DHT22;27407;24.142;-110.310;2023-02-22T11:09:58;14.30;99.90
41722;DHT22;27407;24.142;-110.310;2023-02-22T11:12:37;13.20;99.90
41722;DHT22;27407;24.142;-110.310;2023-02-22T11:17:52;13.40;99.90
41722;DHT22;27407;24.142;-110.310;2023-02-22T11:20:26;15.50;99.90
41722;DHT22;27407;24.142;-110.310;2023-02-22T11:22:58;13.40;99.90
41722;DHT22;27407;24.142;-110.310;2023-02-22T11:25:37;14.60;99.90
41722;DHT22;27407;24.142;-110.310;2023-02-22T11:28:26;13.40;99.90
41722;DHT22;27407;24.142;-110.310;2023-02-22T11:31:24;13.40;99.90
41722;DHT22;27407;24.142;-110.310;2023-02-22T11:34:02;13.20;99.90
41722;DHT22;27407;24.142;-110.310;2023-02-22T11:38:56;13.60;99.90
41722;DHT22;27407;24.142;-110.310;2023-02-22T11:41:30;13.30;99.90
41722;DHT22;27407;24.142;-110.310;2023-02-22T11:46:46;12.60;99.90
41722;DHT22;27407;24.142;-110.310;2023-02-22T11:49:13;13.70;99.90
41722;DHT22;27407;24.142;-110.310;2023-02-22T11:51:54;13.70;99.90
41722;DHT22;27407;24.142;-110.310;2023-02-22T12:08:19;12.90;99.90
41722;DHT22;27407;24.142;-110.310;2023-02-22T12:21:39;12.20;99.90
41722;DHT22;27407;24.142;-110.310;2023-02-22T12:27:26;13.10;99.90
41722;DHT22;27407;24.142;-110.310;2023-02-22T12:30:17;12.70;99.90
41722;DHT22;27407;24.142;-110.310;2023-02-22T12:32:51;13.50;99.90
41722;DHT22;27407;24.142;-110.310;2023-02-22T12:35:27;14.10;99.90
41722;DHT22;27407;24.142;-110.310;2023-02-22T12:41:04;13.60;99.90
41722;DHT22;27407;24.142;-110.310;2023-02-22T12:43:45;13.60;99.90
41722;DHT22;27407;24.142;-110.310;2023-02-22T12:51:48;13.50;99.90
41722;DHT22;27407;24.142;-110.310;2023-02-22T13:00:20;13.40;99.90
41722;DHT22;27407;24.142;-110.310;2023-02-22T13:03:20;13.30;99.90
41722;DHT22;27407;24.142;-110.310;2023-02-22T13:06:09;13.30;99.90
41722;DHT22;27407;24.142;-110.310;2023-02-22T13:12:02;13.30;99.90
41722;DHT22;27407;24.142;-110.310;2023-02-22T13:14:58;13.30;99.90
41722;DHT22;27407;24.142;-110.310;2023-02-22T13:20:08;14.20;99.90
41722;DHT22;27407;24.142;-110.310;2023-02-22T13:23:47;13.80;99.90
41722;DHT22;27407;24.142;-110.310;2023-02-22T13:25:54;13.40;99.90
41722;DHT22;27407;24.142;-110.310;2023-02-22T13:48:33;14.40;99.90
41722;DHT22;27407;24.142;-110.310;2023-02-22T13:53:46;14.70;99.90
41722;DHT22;27407;24.142;-110.310;2023-02-22T13:56:15;13.80;99.90
41722;DHT22;27407;24.142;-110.310;2023-02-22T13:59:01;14.50;99.90
41722;DHT22;27407;24.142;-110.310;2023-02-22T14:01:46;14.40;99.90
41722;DHT22;27407;24.142;-110.310;2023-02-22T14:04:33;14.20;99.90
41722;DHT22;27407;24.142;-110.310;2023-02-22T14:09:51;15.00;99.90
41722;DHT22;27407;24.142;-110.310;2023-02-22T14:15:12;14.70;99.90
41722;DHT22;27407;24.142;-110.310;2023-02-22T14:18:03;13.90;99.90
41722;DHT22;27407;24.142;-110.310;2023-02-22T14:20:33;14.80;99.90
41722;DHT22;27407;24.142;-110.310;2023-02-22T14:23:40;14.80;99.90
41722;DHT22;27407;24.142;-110.310;2023-02-22T14:26:15;14.40;99.90
41722;DHT22;27407;24.142;-110.310;2023-02-22T14:40:06;14.80;99.90
41722;DHT22;27407;24.142;-110.310;2023-02-22T14:50:02;16.30;99.90
41722;DHT22;27407;24.142;-110.310;2023-02-22T14:52:34;16.00;99.90
41722;DHT22;27407;24.142;-110.310;2023-02-22T14:58:01;16.50;99.90
41722;DHT22;27407;24.142;-110.310;2023-02-22T15:00:45;16.60;99.90
41722;DHT22;27407;24.142;-110.310;2023-02-22T15:03:26;16.50;99.90
41722;DHT22;27407;24.142;-110.310;2023-02-22T15:06:06;16.70;99.90
41722;DHT22;27407;24.142;-110.310;2023-02-22T15:13:51;16.90;99.90
41722;DHT22;27407;24.142;-110.310;2023-02-22T15:16:20;16.80;99.90
41722;DHT22;27407;24.142;-110.310;2023-02-22T15:18:59;17.20;99.90
41722;DHT22;27407;24.142;-110.310;2023-02-22T15:21:27;17.30;99.90
41722;DHT22;27407;24.142;-110.310;2023-02-22T15:23:58;16.30;99.90
41722;DHT22;27407;24.142;-110.310;2023-02-22T15:26:41;17.50;99.90
41722;DHT22;27407;24.142;-110.310;2023-02-22T15:29:20;17.80;99.90
41722;DHT22;27407;24.142;-110.310;2023-02-22T15:31:53;17.80;99.90
41722;DHT22;27407;24.142;-110.310;2023-02-22T15:34:31;18.00;99.90
41722;DHT22;27407;24.142;-110.310;2023-02-22T15:37:22;18.00;99.90
41722;DHT22;27407;24.142;-110.310;2023-02-22T15:40:08;18.40;99.90
41722;DHT22;27407;24.142;-110.310;2023-02-22T15:45:18;20.40;99.90
41722;DHT22;27407;24.142;-110.310;2023-02-22T15:47:47;18.70;99.90
41722;DHT22;27407;24.142;-110.310;2023-02-22T15:52:57;18.90;99.90
41722;DHT22;27407;24.142;-110.310;2023-02-22T15:55:44;17.50;99.90
41722;DHT22;27407;24.142;-110.310;2023-02-22T16:00:43;19.70;99.90
41722;DHT22;27407;24.142;-110.310;2023-02-22T16:03:17;19.30;99.90
41722;DHT22;27407;24.142;-110.310;2023-02-22T16:05:54;19.20;99.90
41722;DHT22;27407;24.142;-110.310;2023-02-22T16:08:42;19.50;99.90
41722;DHT22;27407;24.142;-110.310;2023-02-22T16:11:25;19.50;99.90
41722;DHT22;27407;24.142;-110.310;2023-02-22T16:14:04;19.70;99.90
41722;DHT22;27407;24.142;-110.310;2023-02-22T16:16:33;18.90;99.90
41722;DHT22;27407;24.142;-110.310;2023-02-22T16:21:54;19.70;99.90
41722;DHT22;27407;24.142;-110.310;2023-02-22T16:24:33;19.70;99.90
41722;DHT22;27407;24.142;-110.310;2023-02-22T16:32:07;20.50;99.90
41722;DHT22;27407;24.142;-110.310;2023-02-22T16:39:29;20.10;99.90
41722;DHT22;27407;24.142;-110.310;2023-02-22T16:41:59;20.40;99.90
41722;DHT22;27407;24.142;-110.310;2023-02-22T16:44:26;21.00;99.90
41722;DHT22;27407;24.142;-110.310;2023-02-22T16:46:56;21.20;99.90
41722;DHT22;27407;24.142;-110.310;2023-02-22T16:49:23;21.10;99.90
41722;DHT22;27407;24.142;-110.310;2023-02-22T16:54:36;21.30;99.90
41722;DHT22;27407;24.142;-110.310;2023-02-22T16:57:05;20.90;99.90
41722;DHT22;27407;24.142;-110.310;2023-02-22T16:59:39;21.00;99.90
41722;DHT22;27407;24.142;-110.310;2023-02-22T17:02:09;20.90;99.90
41722;DHT22;27407;24.142;-110.310;2023-02-22T17:04:36;20.70;99.90
41722;DHT22;27407;24.142;-110.310;2023-02-22T17:11:56;21.70;99.90
41722;DHT22;27407;24.142;-110.310;2023-02-22T17:14:26;21.60;99.90
41722;DHT22;27407;24.142;-110.310;2023-02-22T17:19:23;21.80;99.90
41722;DHT22;27407;24.142;-110.310;2023-02-22T17:24:19;22.30;99.90
41722;DHT22;27407;24.142;-110.310;2023-02-22T17:26:48;22.30;99.90
41722;DHT22;27407;24.142;-110.310;2023-02-22T17:31:44;22.90;99.90
41722;DHT22;27407;24.142;-110.310;2023-02-22T17:36:38;24.10;99.90
41722;DHT22;27407;24.142;-110.310;2023-02-22T17:43:58;23.50;99.90
41722;DHT22;27407;24.142;-110.310;2023-02-22T17:46:25;23.20;99.90
41722;DHT22;27407;24.142;-110.310;2023-02-22T17:51:23;23.00;99.90
41722;DHT22;27407;24.142;-110.310;2023-02-22T17:53:50;22.70;99.90
41722;DHT22;27407;24.142;-110.310;2023-02-22T17:56:18;22.60;99.90
41722;DHT22;27407;24.142;-110.310;2023-02-22T17:58:47;21.40;99.90
41722;DHT22;27407;24.142;-110.310;2023-02-22T18:01:27;22.30;99.90
41722;DHT22;27407;24.142;-110.310;2023-02-22T18:03:57;22.30;99.90
41722;DHT22;27407;24.142;-110.310;2023-02-22T18:06:25;22.70;99.90
41722;DHT22;27407;24.142;-110.310;2023-02-22T18:08:55;22.50;99.90
41722;DHT22;27407;24.142;-110.310;2023-02-22T18:11:23;22.60;99.90
41722;DHT22;27407;24.142;-110.310;2023-02-22T18:13:57;22.60;99.90
41722;DHT22;27407;24.142;-110.310;2023-02-22T18:16:24;23.10;99.90
41722;DHT22;27407;24.142;-110.310;2023-02-22T18:18:54;23.50;99.90
41722;DHT22;27407;24.142;-110.310;2023-02-22T18:21:22;23.40;99.90
41722;DHT22;27407;24.142;-110.310;2023-02-22T18:26:18;23.70;99.90
41722;DHT22;27407;24.142;-110.310;2023-02-22T18:28:45;24.00;99.90
41722;DHT22;27407;24.142;-110.310;2023-02-22T18:31:17;24.30;99.90
41722;DHT22;27407;24.142;-110.310;2023-02-22T18:33:46;24.40;99.90
41722;DHT22;27407;24.142;-110.310;2023-02-22T18:36:14;24.40;99.90
41722;DHT22;27407;24.142;-110.310;2023-02-22T18:38:41;24.60;99.90
41722;DHT22;27407;24.142;-110.310;2023-02-22T18:41:10;25.80;99.90
41722;DHT22;27407;24.142;-110.310;2023-02-22T18:43:37;25.00;99.90
41722;DHT22;27407;24.142;-110.310;2023-02-22T18:48:37;24.70;99.90
41722;DHT22;27407;24.142;-110.310;2023-02-22T18:51:06;25.60;99.90
41722;DHT22;27407;24.142;-110.310;2023-02-22T18:53:35;26.50;99.90
41722;DHT22;27407;24.142;-110.310;2023-02-22T18:56:04;25.40;99.90
41722;DHT22;27407;24.142;-110.310;2023-02-22T18:58:32;25.00;99.90
41722;DHT22;27407;24.142;-110.310;2023-02-22T19:01:00;25.50;99.90
41722;DHT22;27407;24.142;-110.310;2023-02-22T19:03:28;25.80;99.90
41722;DHT22;27407;24.142;-110.310;2023-02-22T19:06:00;25.20;99.90
41722;DHT22;27407;24.142;-110.310;2023-02-22T19:08:28;24.90;99.90
41722;DHT22;27407;24.142;-110.310;2023-02-22T19:11:04;25.10;99.90
41722;DHT22;27407;24.142;-110.310;2023-02-22T19:13:31;24.90;99.90
41722;DHT22;27407;24.142;-110.310;2023-02-22T19:16:01;24.50;99.90
41722;DHT22;27407;24.142;-110.310;2023-02-22T19:18:30;24.80;99.90
41722;DHT22;27407;24.142;-110.310;2023-02-22T19:21:02;25.10;99.90
41722;DHT22;27407;24.142;-110.310;2023-02-22T19:23:29;25.30;99.90
41722;DHT22;27407;24.142;-110.310;2023-02-22T19:28:24;26.50;99.90
41722;DHT22;27407;24.142;-110.310;2023-02-22T19:33:46;26.30;99.90
41722;DHT22;27407;24.142;-110.310;2023-02-22T19:36:13;26.40;99.90
41722;DHT22;27407;24.142;-110.310;2023-02-22T19:38:41;25.80;99.90
41722;DHT22;27407;24.142;-110.310;2023-02-22T19:41:10;26.90;99.90
41722;DHT22;27407;24.142;-110.310;2023-02-22T19:43:37;26.60;99.90
41722;DHT22;27407;24.142;-110.310;2023-02-22T19:46:05;26.20;99.90
41722;DHT22;27407;24.142;-110.310;2023-02-22T19:51:08;27.20;99.90
41722;DHT22;27407;24.142;-110.310;2023-02-22T19:53:35;27.10;99.90
41722;DHT22;27407;24.142;-110.310;2023-02-22T19:56:09;27.90;99.90
41722;DHT22;27407;24.142;-110.310;2023-02-22T19:58:40;28.00;99.90
41722;DHT22;27407;24.142;-110.310;2023-02-22T20:01:23;28.20;99.80
41722;DHT22;27407;24.142;-110.310;2023-02-22T20:03:53;28.60;99.40
41722;DHT22;27407;24.142;-110.310;2023-02-22T20:06:22;28.80;98.20
41722;DHT22;27407;24.142;-110.310;2023-02-22T20:08:51;28.10;98.70
41722;DHT22;27407;24.142;-110.310;2023-02-22T20:11:18;28.00;98.80
41722;DHT22;27407;24.142;-110.310;2023-02-22T20:13:45;27.70;98.00
41722;DHT22;27407;24.142;-110.310;2023-02-22T20:16:12;28.10;98.40
41722;DHT22;27407;24.142;-110.310;2023-02-22T20:18:43;28.00;97.80
41722;DHT22;27407;24.142;-110.310;2023-02-22T20:21:15;29.00;97.10
41722;DHT22;27407;24.142;-110.310;2023-02-22T20:23:43;28.90;97.30
41722;DHT22;27407;24.142;-110.310;2023-02-22T20:26:30;28.00;96.90
41722;DHT22;27407;24.142;-110.310;2023-02-22T20:28:57;27.20;97.40
41722;DHT22;27407;24.142;-110.310;2023-02-22T20:31:24;28.40;96.50
41722;DHT22;27407;24.142;-110.310;2023-02-22T20:33:56;28.70;96.50
41722;DHT22;27407;24.142;-110.310;2023-02-22T20:36:24;29.20;95.80
41722;DHT22;27407;24.142;-110.310;2023-02-22T20:38:55;29.00;95.70
41722;DHT22;27407;24.142;-110.310;2023-02-22T20:41:27;28.30;95.90
41722;DHT22;27407;24.142;-110.310;2023-02-22T20:43:54;28.90;94.90
41722;DHT22;27407;24.142;-110.310;2023-02-22T20:46:23;28.80;95.70
41722;DHT22;27407;24.142;-110.310;2023-02-22T20:48:57;29.60;95.30
41722;DHT22;27407;24.142;-110.310;2023-02-22T20:51:25;30.40;94.30
41722;DHT22;27407;24.142;-110.310;2023-02-22T20:53:52;30.10;93.80
41722;DHT22;27407;24.142;-110.310;2023-02-22T20:56:21;30.00;93.50
41722;DHT22;27407;24.142;-110.310;2023-02-22T20:58:49;29.20;93.20
41722;DHT22;27407;24.142;-110.310;2023-02-22T21:01:17;30.40;93.70
41722;DHT22;27407;24.142;-110.310;2023-02-22T21:03:45;29.70;93.30
41722;DHT22;27407;24.142;-110.310;2023-02-22T21:06:14;29.60;93.40
41722;DHT22;27407;24.142;-110.310;2023-02-22T21:08:44;29.50;93.30
41722;DHT22;27407;24.142;-110.310;2023-02-22T21:11:15;30.50;92.20
41722;DHT22;27407;24.142;-110.310;2023-02-22T21:13:45;30.80;91.80
41722;DHT22;27407;24.142;-110.310;2023-02-22T21:16:21;31.40;91.20
41722;DHT22;27407;24.142;-110.310;2023-02-22T21:18:56;31.20;90.20
41722;DHT22;27407;24.142;-110.310;2023-02-22T21:21:24;30.20;91.30
41722;DHT22;27407;24.142;-110.310;2023-02-22T21:23:53;29.50;91.70
41722;DHT22;27407;24.142;-110.310;2023-02-22T21:26:23;29.60;91.70
41722;DHT22;27407;24.142;-110.310;2023-02-22T21:28:54;30.10;90.40
41722;DHT22;27407;24.142;-110.310;2023-02-22T21:31:23;29.60;91.10
41722;DHT22;27407;24.142;-110.310;2023-02-22T21:33:52;29.20;91.80
41722;DHT22;27407;24.142;-110.310;2023-02-22T21:36:19;29.70;91.90
41722;DHT22;27407;24.142;-110.310;2023-02-22T21:38:47;30.50;91.10
41722;DHT22;27407;24.142;-110.310;2023-02-22T21:41:23;30.80;90.30
41722;DHT22;27407;24.142;-110.310;2023-02-22T21:43:54;29.90;90.20
41722;DHT22;27407;24.142;-110.310;2023-02-22T21:46:21;29.70;90.30
41722;DHT22;27407;24.142;-110.310;2023-02-22T21:48:48;30.40;90.80
41722;DHT22;27407;24.142;-110.310;2023-02-22T21:51:23;30.80;90.10
41722;DHT22;27407;24.142;-110.310;2023-02-22T21:53:52;30.70;89.80
41722;DHT22;27407;24.142;-110.310;2023-02-22T21:56:22;30.90;88.60
41722;DHT22;27407;24.142;-110.310;2023-02-22T21:59:06;31.60;86.60
41722;DHT22;27407;24.142;-110.310;2023-02-22T22:01:40;30.50;87.50
41722;DHT22;27407;24.142;-110.310;2023-02-22T22:04:20;30.00;87.20